createdAt,value
2018-11-06T00:01:03.927Z,97.70
2018-11-06T00:03:38.283Z,97.70
2018-11-06T00:06:06.718Z,97.80
2018-11-06T00:08:35.115Z,97.90
2018-11-06T00:11:03.524Z,98.10
2018-11-06T00:13:31.929Z,98.20
2018-11-06T00:16:00.344Z,98.30
2018-11-06T00:18:28.770Z,98.40
2018-11-06T00:20:57.201Z,98.50
2018-11-06T00:23:25.659Z,98.50
2018-11-06T00:25:54.104Z,98.60
2018-11-06T00:28:22.529Z,98.40
2018-11-06T00:30:50.947Z,98.70
2018-11-06T00:33:19.319Z,98.80
2018-11-06T00:35:47.728Z,98.80
2018-11-06T00:38:16.169Z,98.90
2018-11-06T00:40:45.056Z,99.00
2018-11-06T00:43:13.491Z,99.10
2018-11-06T00:45:41.792Z,99.20
2018-11-06T00:48:10.114Z,99.30
2018-11-06T00:50:39.207Z,99.40
2018-11-06T00:53:07.644Z,99.50
2018-11-06T00:55:36.071Z,99.50
2018-11-06T00:58:04.505Z,99.60
2018-11-06T01:00:32.948Z,99.60
2018-11-06T01:03:01.374Z,99.70
2018-11-06T01:05:29.840Z,99.80
2018-11-06T01:07:58.287Z,99.80
2018-11-06T01:10:27.243Z,99.80
2018-11-06T01:12:57.810Z,99.90
2018-11-06T01:15:31.319Z,99.90
2018-11-06T01:18:01.554Z,99.90
2018-11-06T01:20:29.968Z,99.90
2018-11-06T01:22:58.448Z,99.90
2018-11-06T01:25:26.938Z,99.90
2018-11-06T01:27:55.296Z,99.90
2018-11-06T01:30:23.680Z,99.90
2018-11-06T01:32:52.066Z,99.90
2018-11-06T01:35:20.486Z,99.90
2018-11-06T01:37:48.878Z,99.90
2018-11-06T01:40:18.674Z,99.90
2018-11-06T01:42:47.542Z,99.90
2018-11-06T01:45:17.324Z,99.90
2018-11-06T01:47:45.798Z,99.90
2018-11-06T01:50:16.908Z,99.90
2018-11-06T01:52:46.243Z,99.90
2018-11-06T01:55:14.692Z,99.90
2018-11-06T01:57:43.132Z,99.90
2018-11-06T02:00:14.060Z,99.90
2018-11-06T02:02:42.517Z,99.90
2018-11-06T02:05:14.133Z,99.90
2018-11-06T02:07:44.047Z,99.90
2018-11-06T02:10:13.988Z,99.90
2018-11-06T02:12:43.336Z,99.90
2018-11-06T02:15:11.773Z,99.90
2018-11-06T02:17:41.504Z,99.90
2018-11-06T02:20:10.871Z,99.90
2018-11-06T02:22:40.427Z,99.90
2018-11-06T02:25:12.959Z,99.90
2018-11-06T02:27:41.370Z,99.90
2018-11-06T02:30:11.495Z,99.90
2018-11-06T02:32:40.350Z,99.90
2018-11-06T02:35:08.756Z,99.90
2018-11-06T02:37:37.754Z,99.90
2018-11-06T02:40:06.924Z,99.90
2018-11-06T02:42:35.336Z,99.90
2018-11-06T02:45:03.775Z,99.90
2018-11-06T02:47:32.160Z,99.90
2018-11-06T02:50:00.525Z,99.90
2018-11-06T02:52:28.906Z,99.90
2018-11-06T02:54:57.328Z,99.90
2018-11-06T02:57:25.732Z,99.90
2018-11-06T02:59:54.153Z,99.90
2018-11-06T03:02:22.619Z,99.90
2018-11-06T03:04:51.230Z,99.90
2018-11-06T03:07:20.539Z,99.90
2018-11-06T03:09:50.615Z,99.90
2018-11-06T03:12:19.016Z,99.90
2018-11-06T03:14:47.415Z,99.90
2018-11-06T03:17:15.828Z,99.90
2018-11-06T03:19:44.207Z,99.90
2018-11-06T03:22:12.771Z,99.90
2018-11-06T03:24:41.207Z,99.90
2018-11-06T03:27:09.749Z,99.90
2018-11-06T03:29:38.072Z,99.90
2018-11-06T03:32:06.649Z,99.90
2018-11-06T03:34:35.069Z,99.90
2018-11-06T03:37:03.593Z,99.90
2018-11-06T03:39:32.005Z,99.90
2018-11-06T03:42:00.520Z,99.90
2018-11-06T03:44:28.998Z,99.90
2018-11-06T03:46:57.421Z,99.90
2018-11-06T03:49:25.831Z,99.90
2018-11-06T03:51:54.193Z,99.90
2018-11-06T03:54:22.515Z,99.90
2018-11-06T03:56:50.948Z,99.90
2018-11-06T03:59:19.659Z,99.90
2018-11-06T04:01:48.694Z,99.90
2018-11-06T04:04:17.092Z,99.90
2018-11-06T04:06:45.543Z,99.90
2018-11-06T04:09:14.373Z,99.90
2018-11-06T04:11:42.823Z,99.90
2018-11-06T04:14:11.678Z,99.90
2018-11-06T04:16:40.251Z,99.90
2018-11-06T04:19:09.157Z,99.90
2018-11-06T04:21:38.794Z,99.90
2018-11-06T04:24:15.052Z,99.90
2018-11-06T04:26:43.541Z,99.90
2018-11-06T04:29:11.961Z,99.90
2018-11-06T04:31:40.771Z,99.90
2018-11-06T04:34:09.662Z,99.90
2018-11-06T04:36:38.089Z,99.90
2018-11-06T04:39:09.742Z,99.90
2018-11-06T04:41:38.136Z,99.90
2018-11-06T04:44:07.124Z,99.90
2018-11-06T04:46:35.765Z,99.90
2018-11-06T04:49:04.568Z,99.90
2018-11-06T04:51:33.019Z,99.90
2018-11-06T04:54:02.228Z,99.90
2018-11-06T04:56:31.305Z,99.90
2018-11-06T04:58:59.693Z,99.90
2018-11-06T05:01:28.298Z,99.90
2018-11-06T05:03:56.739Z,99.90
2018-11-06T05:06:25.151Z,99.90
2018-11-06T05:08:53.533Z,99.90
2018-11-06T05:11:21.935Z,99.90
2018-11-06T05:13:50.459Z,99.90
2018-11-06T05:16:19.272Z,99.90
2018-11-06T05:18:47.691Z,99.90
2018-11-06T05:21:16.288Z,99.90
2018-11-06T05:23:44.786Z,99.90
2018-11-06T05:26:13.944Z,99.90
2018-11-06T05:28:42.365Z,99.90
2018-11-06T05:31:10.755Z,99.90
2018-11-06T05:33:39.172Z,99.90
2018-11-06T05:36:07.645Z,99.90
2018-11-06T05:38:36.163Z,99.90
2018-11-06T05:41:06.382Z,99.90
2018-11-06T05:43:35.252Z,99.90
2018-11-06T05:46:03.673Z,99.90
2018-11-06T05:48:32.099Z,99.90
2018-11-06T05:51:00.507Z,99.90
2018-11-06T05:53:28.924Z,99.90
2018-11-06T05:56:00.088Z,99.90
2018-11-06T05:58:28.572Z,99.90
2018-11-06T06:00:56.955Z,99.90
2018-11-06T06:03:25.400Z,99.90
2018-11-06T06:05:54.096Z,99.90
2018-11-06T06:08:22.542Z,99.90
2018-11-06T06:10:50.981Z,99.90
2018-11-06T06:13:19.391Z,99.90
2018-11-06T06:15:47.827Z,99.90
2018-11-06T06:18:16.204Z,99.90
2018-11-06T06:20:44.650Z,99.90
2018-11-06T06:23:13.271Z,99.90
2018-11-06T06:25:41.675Z,99.90
2018-11-06T06:28:10.297Z,99.90
2018-11-06T06:30:38.728Z,99.90
2018-11-06T06:33:07.152Z,99.90
2018-11-06T06:35:35.529Z,99.90
2018-11-06T06:38:04.040Z,99.90
2018-11-06T06:40:32.519Z,99.90
2018-11-06T06:43:00.924Z,99.90
2018-11-06T06:45:29.455Z,99.90
2018-11-06T06:47:57.983Z,99.90
2018-11-06T06:50:26.462Z,99.90
2018-11-06T06:52:54.986Z,99.90
2018-11-06T06:55:23.431Z,99.90
2018-11-06T06:57:51.820Z,99.90
2018-11-06T07:00:21.447Z,99.90
2018-11-06T07:02:49.892Z,99.90
2018-11-06T07:05:20.044Z,99.90
2018-11-06T07:07:48.526Z,99.90
2018-11-06T07:10:18.164Z,99.90
2018-11-06T07:12:47.426Z,99.90
2018-11-06T07:15:17.098Z,99.90
2018-11-06T07:17:46.496Z,99.90
2018-11-06T07:20:16.220Z,99.90
2018-11-06T07:22:44.685Z,99.90
2018-11-06T07:25:13.685Z,99.90
2018-11-06T07:27:42.955Z,99.90
2018-11-06T07:30:14.667Z,99.90
2018-11-06T07:32:43.792Z,99.90
2018-11-06T07:35:12.959Z,99.90
2018-11-06T07:37:41.668Z,99.90
2018-11-06T07:40:11.923Z,99.90
2018-11-06T07:42:40.751Z,99.90
2018-11-06T07:45:11.491Z,99.90
2018-11-06T07:47:39.892Z,99.90
2018-11-06T07:50:09.258Z,99.90
2018-11-06T07:52:38.323Z,99.90
2018-11-06T07:55:08.503Z,99.90
2018-11-06T07:57:36.876Z,99.90
2018-11-06T08:00:08.120Z,99.70
2018-11-06T08:02:36.496Z,99.40
2018-11-06T08:05:05.433Z,98.80
2018-11-06T08:07:34.059Z,97.80
2018-11-06T08:10:02.527Z,97.60
2018-11-06T08:12:31.400Z,97.40
2018-11-06T08:14:59.806Z,97.30
2018-11-06T08:17:28.275Z,97.20
2018-11-06T08:19:56.688Z,97.00
2018-11-06T08:22:25.133Z,97.00
2018-11-06T08:24:53.491Z,96.80
2018-11-06T08:27:21.952Z,96.40
2018-11-06T08:29:50.433Z,96.20
2018-11-06T08:32:19.095Z,96.00
2018-11-06T08:34:48.015Z,95.30
2018-11-06T08:37:16.429Z,95.00
2018-11-06T08:39:45.097Z,94.80
2018-11-06T08:42:13.590Z,94.30
2018-11-06T08:44:41.995Z,94.20
2018-11-06T08:47:10.410Z,94.50
2018-11-06T08:49:38.796Z,94.20
2018-11-06T08:52:07.444Z,94.20
2018-11-06T08:54:35.960Z,94.20
2018-11-06T08:57:04.333Z,94.40
2018-11-06T08:59:32.755Z,94.20
2018-11-06T09:02:01.256Z,93.90
2018-11-06T09:04:29.827Z,93.80
2018-11-06T09:06:58.300Z,94.10
2018-11-06T09:09:26.747Z,94.40
2018-11-06T09:11:55.120Z,94.40
2018-11-06T09:14:23.608Z,94.40
2018-11-06T09:16:52.057Z,94.50
2018-11-06T09:19:20.399Z,94.30
2018-11-06T09:21:48.801Z,94.20
2018-11-06T09:24:17.226Z,94.00
2018-11-06T09:26:45.680Z,93.20
2018-11-06T09:29:14.985Z,93.00
2018-11-06T09:31:43.510Z,92.80
2018-11-06T09:34:12.677Z,92.60
2018-11-06T09:36:41.280Z,92.40
2018-11-06T09:39:10.664Z,92.10
2018-11-06T09:41:39.440Z,91.80
2018-11-06T09:44:07.996Z,91.20
2018-11-06T09:46:36.987Z,90.90
2018-11-06T09:49:05.483Z,90.50
2018-11-06T09:51:33.887Z,89.90
2018-11-06T09:54:02.364Z,87.10
2018-11-06T09:56:30.847Z,87.70
2018-11-06T09:58:59.216Z,89.10
2018-11-06T10:01:27.660Z,90.20
2018-11-06T10:03:56.074Z,89.80
2018-11-06T10:06:24.591Z,88.80
2018-11-06T10:08:53.528Z,88.50
2018-11-06T10:11:21.949Z,86.80
2018-11-06T10:13:50.303Z,86.40
2018-11-06T10:16:18.708Z,80.30
2018-11-06T10:18:47.073Z,77.30
2018-11-06T10:21:15.539Z,70.10
2018-11-06T10:23:44.028Z,64.80
2018-11-06T10:26:12.907Z,59.00
2018-11-06T10:28:41.355Z,59.10
2018-11-06T10:31:09.823Z,57.90
2018-11-06T10:33:38.242Z,56.90
2018-11-06T10:36:06.707Z,55.50
2018-11-06T10:38:35.156Z,54.80
2018-11-06T10:41:03.518Z,53.30
2018-11-06T10:43:31.880Z,51.10
2018-11-06T10:46:00.320Z,49.70
2018-11-06T10:48:28.748Z,51.10
2018-11-06T10:50:57.227Z,49.60
2018-11-06T10:53:25.669Z,48.30
2018-11-06T10:55:54.092Z,48.50
2018-11-06T10:58:22.588Z,45.80
2018-11-06T11:00:56.370Z,45.00
2018-11-06T11:03:33.085Z,44.30
2018-11-06T11:06:01.712Z,44.10
2018-11-06T11:08:30.200Z,45.10
2018-11-06T11:10:58.901Z,46.40
2018-11-06T11:13:27.441Z,47.00
2018-11-06T11:15:57.673Z,45.70
2018-11-06T11:18:26.090Z,47.00
2018-11-06T11:20:54.552Z,48.40
2018-11-06T11:23:22.982Z,49.70
2018-11-06T11:25:51.433Z,49.90
2018-11-06T11:28:19.843Z,49.60
2018-11-06T11:30:48.437Z,48.10
2018-11-06T11:33:16.889Z,47.70
2018-11-06T11:35:45.311Z,47.20
2018-11-06T11:38:13.816Z,46.80
2018-11-06T11:40:42.314Z,47.00
2018-11-06T11:43:10.772Z,46.70
2018-11-06T11:45:39.423Z,46.70
2018-11-06T11:48:07.806Z,46.20
2018-11-06T11:50:36.199Z,46.80
2018-11-06T11:53:07.716Z,45.80
2018-11-06T11:55:36.298Z,47.40
2018-11-06T11:58:04.741Z,46.50
2018-11-06T12:00:37.140Z,47.80
2018-11-06T12:03:06.651Z,48.30
2018-11-06T12:05:35.034Z,49.80
2018-11-06T12:08:03.484Z,50.60
2018-11-06T12:10:31.910Z,52.30
2018-11-06T12:13:00.326Z,52.90
2018-11-06T12:15:28.998Z,54.30
2018-11-06T12:17:57.425Z,54.50
2018-11-06T12:20:25.748Z,53.80
2018-11-06T12:22:54.687Z,54.40
2018-11-06T12:25:23.359Z,55.10
2018-11-06T12:27:51.427Z,55.40
2018-11-06T12:30:20.001Z,56.10
2018-11-06T12:32:48.388Z,55.80
2018-11-06T12:35:16.883Z,55.00
2018-11-06T12:37:45.274Z,54.50
2018-11-06T12:40:14.170Z,54.40
2018-11-06T12:42:43.326Z,53.90
2018-11-06T12:45:13.036Z,53.70
2018-11-06T12:47:42.024Z,53.20
2018-11-06T12:50:10.627Z,53.70
2018-11-06T12:52:39.500Z,54.80
2018-11-06T12:55:09.125Z,55.50
2018-11-06T12:57:37.692Z,55.40
2018-11-06T13:00:08.176Z,55.60
2018-11-06T13:02:36.548Z,54.10
2018-11-06T13:05:05.081Z,54.40
2018-11-06T13:07:33.463Z,56.20
2018-11-06T13:10:01.919Z,57.90
2018-11-06T13:12:30.340Z,60.00
2018-11-06T13:14:59.322Z,60.70
2018-11-06T13:17:27.260Z,62.80
2018-11-06T13:19:55.664Z,65.00
2018-11-06T13:22:23.972Z,65.80
2018-11-06T13:24:52.398Z,66.20
2018-11-06T13:27:21.355Z,66.70
2018-11-06T13:29:49.743Z,67.20
2018-11-06T13:32:18.247Z,68.30
2018-11-06T13:34:47.393Z,69.30
2018-11-06T13:37:15.879Z,70.80
2018-11-06T13:39:44.224Z,72.10
2018-11-06T13:42:14.654Z,73.00
2018-11-06T13:44:43.868Z,73.40
2018-11-06T13:47:12.037Z,74.50
2018-11-06T13:49:40.442Z,73.40
2018-11-06T13:52:08.849Z,73.80
2018-11-06T13:54:37.214Z,74.60
2018-11-06T13:57:05.875Z,74.40
2018-11-06T13:59:34.264Z,75.00
2018-11-06T14:02:02.936Z,75.90
2018-11-06T14:04:31.445Z,75.00
2018-11-06T14:06:59.942Z,74.70
2018-11-06T14:09:28.558Z,76.10
2018-11-06T14:11:56.996Z,77.50
2018-11-06T14:14:25.476Z,78.20
2018-11-06T14:16:53.918Z,78.70
2018-11-06T14:19:22.428Z,78.20
2018-11-06T14:21:50.921Z,78.90
2018-11-06T14:24:19.468Z,79.30
2018-11-06T14:26:48.040Z,79.90
2018-11-06T14:29:16.572Z,80.40
2018-11-06T14:31:45.102Z,80.70
2018-11-06T14:34:14.037Z,81.40
2018-11-06T14:36:42.604Z,82.10
2018-11-06T14:39:11.440Z,83.10
2018-11-06T14:41:39.886Z,83.40
2018-11-06T14:44:08.367Z,84.20
2018-11-06T14:46:36.772Z,85.00
2018-11-06T14:49:07.717Z,85.40
2018-11-06T14:51:36.345Z,85.90
2018-11-06T14:54:05.011Z,86.20
2018-11-06T14:56:33.468Z,86.40
2018-11-06T14:59:02.543Z,86.70
2018-11-06T15:01:30.936Z,87.20
2018-11-06T15:04:00.445Z,87.50
2018-11-06T15:06:29.022Z,87.90
2018-11-06T15:08:57.557Z,88.20
2018-11-06T15:11:25.992Z,88.60
2018-11-06T15:13:54.448Z,89.40
2018-11-06T15:16:22.871Z,89.50
2018-11-06T15:21:58.304Z,90.00
2018-11-06T15:24:49.222Z,90.10
2018-11-06T15:27:17.696Z,90.40
2018-11-06T15:29:46.128Z,90.50
2018-11-06T15:32:14.755Z,90.60
2018-11-06T15:34:43.991Z,90.90
2018-11-06T15:37:12.480Z,90.80
2018-11-06T15:39:41.286Z,90.90
2018-11-06T15:42:09.736Z,91.00
2018-11-06T15:44:38.156Z,90.90
2018-11-06T15:47:06.640Z,91.00
2018-11-06T15:49:35.076Z,91.10
2018-11-06T15:52:03.523Z,91.30
2018-11-06T15:54:32.081Z,91.60
2018-11-06T15:57:01.012Z,91.60
2018-11-06T15:59:29.565Z,91.70
2018-11-06T16:01:57.924Z,91.70
2018-11-06T16:04:26.483Z,91.90
2018-11-06T16:06:54.984Z,91.70
2018-11-06T16:09:24.324Z,91.50
2018-11-06T16:11:52.828Z,91.40
2018-11-06T16:14:21.432Z,91.30
2018-11-06T16:16:50.433Z,91.40
2018-11-06T16:19:21.157Z,91.40
2018-11-06T16:21:49.491Z,91.50
2018-11-06T16:24:18.616Z,92.40
2018-11-06T16:26:47.368Z,92.70
2018-11-06T16:29:16.535Z,92.40
2018-11-06T16:31:45.359Z,92.00
2018-11-06T16:34:13.805Z,91.80
2018-11-06T16:36:42.674Z,91.80
2018-11-06T16:39:12.644Z,91.80
2018-11-06T16:41:41.429Z,91.80
2018-11-06T16:44:09.872Z,91.90
2018-11-06T16:46:38.279Z,92.10
2018-11-06T16:49:06.924Z,92.50
2018-11-06T16:51:35.505Z,92.30
2018-11-06T16:54:04.025Z,92.50
2018-11-06T16:56:32.544Z,92.50
2018-11-06T16:59:00.974Z,92.70
2018-11-06T17:01:29.691Z,92.70
2018-11-06T17:03:58.309Z,92.70
2018-11-06T17:06:32.321Z,92.80
2018-11-06T17:09:00.656Z,92.90
2018-11-06T17:11:29.112Z,93.10
2018-11-06T17:13:57.579Z,93.20
2018-11-06T17:16:25.984Z,93.20
2018-11-06T17:18:54.479Z,93.20
2018-11-06T17:21:22.941Z,93.10
2018-11-06T17:23:51.395Z,93.00
2018-11-06T17:26:22.103Z,93.10
2018-11-06T17:29:05.247Z,93.20
2018-11-06T17:31:33.950Z,93.10
2018-11-06T17:34:02.433Z,93.10
2018-11-06T17:36:31.334Z,93.20
2018-11-06T17:39:00.208Z,93.30
2018-11-06T17:41:28.683Z,93.30
2018-11-06T17:43:57.135Z,93.30
2018-11-06T17:46:25.593Z,93.20
2018-11-06T17:49:00.070Z,93.30
2018-11-06T17:51:28.536Z,93.30
2018-11-06T17:53:56.905Z,93.60
2018-11-06T17:56:25.334Z,93.70
2018-11-06T17:58:53.768Z,93.80
2018-11-06T18:01:22.208Z,93.90
2018-11-06T18:03:50.937Z,94.00
2018-11-06T18:06:24.299Z,94.20
2018-11-06T18:08:52.687Z,94.10
2018-11-06T18:11:21.068Z,94.40
2018-11-06T18:13:49.524Z,94.30
2018-11-06T18:16:18.296Z,94.30
2018-11-06T18:18:46.787Z,94.40
2018-11-06T18:21:15.272Z,94.20
2018-11-06T18:23:43.699Z,94.10
2018-11-06T18:26:12.128Z,94.30
2018-11-06T18:28:40.536Z,94.20
2018-11-06T18:31:08.980Z,94.60
2018-11-06T18:33:37.431Z,94.40
2018-11-06T18:36:05.864Z,94.50
2018-11-06T18:38:34.287Z,94.50
2018-11-06T18:41:02.712Z,94.60
2018-11-06T18:43:37.907Z,94.30
2018-11-06T18:46:06.334Z,94.40
2018-11-06T18:48:34.797Z,94.20
2018-11-06T18:51:03.149Z,94.00
2018-11-06T18:53:31.676Z,94.00
2018-11-06T18:56:00.118Z,94.20
2018-11-06T18:58:31.161Z,94.70
2018-11-06T19:00:59.640Z,94.90
2018-11-06T19:03:28.862Z,95.70
2018-11-06T19:05:59.520Z,96.10
2018-11-06T19:08:27.980Z,96.00
2018-11-06T19:10:56.461Z,95.90
2018-11-06T19:13:24.917Z,96.10
2018-11-06T19:15:53.394Z,96.60
2018-11-06T19:18:22.037Z,96.60
2018-11-06T19:20:50.491Z,96.80
2018-11-06T19:23:18.899Z,96.80
2018-11-06T19:25:47.326Z,96.80
2018-11-06T19:28:22.263Z,96.80
2018-11-06T19:30:50.658Z,97.00
2018-11-06T19:33:19.020Z,97.30
2018-11-06T19:35:47.520Z,97.50
2018-11-06T19:38:16.188Z,97.60
2018-11-06T19:40:45.182Z,97.70
2018-11-06T19:43:13.660Z,97.70
2018-11-06T19:45:42.194Z,97.70
2018-11-06T19:48:10.663Z,97.80
2018-11-06T19:50:39.131Z,97.80
2018-11-06T19:53:07.662Z,97.80
2018-11-06T19:55:38.379Z,97.80
2018-11-06T19:58:06.819Z,97.80
2018-11-06T20:00:35.395Z,97.80
2018-11-06T20:03:04.005Z,97.80
2018-11-06T20:05:32.436Z,97.80
2018-11-06T20:08:00.872Z,98.20
2018-11-06T20:10:29.445Z,97.90
2018-11-06T20:12:57.920Z,97.90
2018-11-06T20:15:26.385Z,98.00
2018-11-06T20:17:54.876Z,98.00
2018-11-06T20:20:24.605Z,98.00
2018-11-06T20:22:53.078Z,98.00
2018-11-06T20:25:21.507Z,98.00
2018-11-06T20:27:52.197Z,98.50
2018-11-06T20:30:22.052Z,98.20
2018-11-06T20:33:13.242Z,98.20
2018-11-06T20:35:41.802Z,98.20
2018-11-06T20:38:10.216Z,98.30
2018-11-06T20:40:38.776Z,98.30
2018-11-06T20:43:07.438Z,98.30
2018-11-06T20:45:35.731Z,98.30
2018-11-06T20:48:04.556Z,98.30
2018-11-06T20:50:33.140Z,98.10
2018-11-06T20:53:02.091Z,96.50
2018-11-06T20:55:30.623Z,96.00
2018-11-06T20:57:59.154Z,96.70
2018-11-06T21:00:30.311Z,96.20
2018-11-06T21:03:01.116Z,96.70
2018-11-06T21:05:29.782Z,96.90
2018-11-06T21:07:58.304Z,97.00
2018-11-06T21:10:28.332Z,97.00
2018-11-06T21:12:56.853Z,96.90
2018-11-06T21:15:27.548Z,96.80
2018-11-06T21:17:56.078Z,96.70
2018-11-06T21:20:24.391Z,96.60
2018-11-06T21:22:52.756Z,96.60
2018-11-06T21:25:22.382Z,96.80
2018-11-06T21:27:50.679Z,96.90
2018-11-06T21:30:20.385Z,97.10
2018-11-06T21:32:50.040Z,97.50
2018-11-06T21:35:18.905Z,98.10
2018-11-06T21:37:47.588Z,98.10
2018-11-06T21:40:17.555Z,97.50
2018-11-06T21:42:46.712Z,97.30
2018-11-06T21:45:15.812Z,97.50
2018-11-06T21:47:45.147Z,97.50
2018-11-06T21:50:14.460Z,97.30
2018-11-06T21:52:44.194Z,96.90
2018-11-06T21:55:14.086Z,96.70
2018-11-06T21:57:42.591Z,96.50
2018-11-06T22:00:13.514Z,96.60
2018-11-06T22:02:42.263Z,96.70
2018-11-06T22:05:12.263Z,96.60
2018-11-06T22:07:41.239Z,96.50
2018-11-06T22:10:11.548Z,96.50
2018-11-06T22:12:40.854Z,96.60
2018-11-06T22:15:10.744Z,96.70
2018-11-06T22:17:39.511Z,97.10
2018-11-06T22:20:10.275Z,97.10
2018-11-06T22:22:40.429Z,97.00
2018-11-06T22:25:08.870Z,96.80
2018-11-06T22:27:37.602Z,96.80
2018-11-06T22:30:08.024Z,96.90
2018-11-06T22:32:36.521Z,97.10
2018-11-06T22:35:06.120Z,97.10
2018-11-06T22:37:34.602Z,97.10
2018-11-06T22:40:03.008Z,97.00
2018-11-06T22:42:31.424Z,96.90
2018-11-06T22:44:59.895Z,96.90
2018-11-06T22:47:28.608Z,97.00
2018-11-06T22:49:57.011Z,97.10
2018-11-06T22:52:26.403Z,97.50
2018-11-06T22:54:54.877Z,97.10
2018-11-06T22:57:23.267Z,97.10
2018-11-06T22:59:51.735Z,97.00
2018-11-06T23:02:20.752Z,97.10
2018-11-06T23:04:49.155Z,97.20
2018-11-06T23:07:23.036Z,97.40
2018-11-06T23:09:51.427Z,97.40
2018-11-06T23:12:20.427Z,97.50
2018-11-06T23:14:48.818Z,97.50
2018-11-06T23:17:17.534Z,97.40
2018-11-06T23:19:45.948Z,97.50
2018-11-06T23:22:14.371Z,97.60
2018-11-06T23:24:42.727Z,97.60
2018-11-06T23:27:11.184Z,97.60
2018-11-06T23:29:39.619Z,97.60
2018-11-06T23:32:08.020Z,97.60
2018-11-06T23:34:37.112Z,97.70
2018-11-06T23:37:05.571Z,97.60
2018-11-06T23:39:33.919Z,97.60
2018-11-06T23:42:02.389Z,97.60
2018-11-06T23:44:30.756Z,97.60
2018-11-06T23:46:59.176Z,97.60
2018-11-06T23:49:27.628Z,97.60
2018-11-06T23:51:56.090Z,97.50
2018-11-06T23:54:24.468Z,97.50
2018-11-06T23:56:52.912Z,97.50
2018-11-06T23:59:21.337Z,97.40
